sensor_id;sensor_type;location;lat;lon;timestamp;P1;durP1;ratioP1;P2;durP2;ratioP2
76826;SDS011;65788;52.284;20.890;2023-05-29T00:02:09;3.20;;;1.90;;
76826;SDS011;65788;52.284;20.890;2023-05-29T00:04:40;4.20;;;2.20;;
76826;SDS011;65788;52.284;20.890;2023-05-29T00:07:07;4.00;;;2.20;;
76826;SDS011;65788;52.284;20.890;2023-05-29T00:09:35;4.00;;;2.10;;
76826;SDS011;65788;52.284;20.890;2023-05-29T00:12:03;4.00;;;2.60;;
76826;SDS011;65788;52.284;20.890;2023-05-29T00:16:57;5.00;;;2.30;;
76826;SDS011;65788;52.284;20.890;2023-05-29T00:19:25;4.00;;;2.00;;
76826;SDS011;65788;52.284;20.890;2023-05-29T00:21:51;3.30;;;2.20;;
76826;SDS011;65788;52.284;20.890;2023-05-29T00:24:19;5.50;;;2.60;;
76826;SDS011;65788;52.284;20.890;2023-05-29T00:26:48;4.90;;;2.20;;
76826;SDS011;65788;52.284;20.890;2023-05-29T00:29:15;3.60;;;2.20;;
76826;SDS011;65788;52.284;20.890;2023-05-29T00:31:42;4.20;;;2.50;;
76826;SDS011;65788;52.284;20.890;2023-05-29T00:34:10;6.00;;;2.40;;
76826;SDS011;65788;52.284;20.890;2023-05-29T00:36:37;3.90;;;2.40;;
76826;SDS011;65788;52.284;20.890;2023-05-29T00:39:05;5.70;;;2.40;;
76826;SDS011;65788;52.284;20.890;2023-05-29T00:41:33;4.20;;;2.00;;
76826;SDS011;65788;52.284;20.890;2023-05-29T00:44:00;4.20;;;2.60;;
76826;SDS011;65788;52.284;20.890;2023-05-29T00:46:27;3.30;;;2.00;;
76826;SDS011;65788;52.284;20.890;2023-05-29T00:48:55;4.20;;;2.00;;
76826;SDS011;65788;52.284;20.890;2023-05-29T00:51:22;4.50;;;2.40;;
76826;SDS011;65788;52.284;20.890;2023-05-29T00:53:49;4.70;;;2.30;;
76826;SDS011;65788;52.284;20.890;2023-05-29T00:56:19;4.80;;;2.40;;
76826;SDS011;65788;52.284;20.890;2023-05-29T00:58:48;3.80;;;2.20;;
76826;SDS011;65788;52.284;20.890;2023-05-29T01:01:19;3.60;;;2.10;;
76826;SDS011;65788;52.284;20.890;2023-05-29T01:03:51;4.10;;;2.30;;
76826;SDS011;65788;52.284;20.890;2023-05-29T01:06:23;5.50;;;2.60;;
76826;SDS011;65788;52.284;20.890;2023-05-29T01:08:52;5.40;;;2.00;;
76826;SDS011;65788;52.284;20.890;2023-05-29T01:11:31;3.90;;;2.20;;
76826;SDS011;65788;52.284;20.890;2023-05-29T01:14:45;4.60;;;2.10;;
76826;SDS011;65788;52.284;20.890;2023-05-29T01:17:17;5.60;;;2.20;;
76826;SDS011;65788;52.284;20.890;2023-05-29T01:22:56;4.70;;;2.20;;
76826;SDS011;65788;52.284;20.890;2023-05-29T01:27:56;7.70;;;2.00;;
76826;SDS011;65788;52.284;20.890;2023-05-29T01:30:28;4.00;;;2.40;;
76826;SDS011;65788;52.284;20.890;2023-05-29T01:32:59;4.00;;;2.10;;
76826;SDS011;65788;52.284;20.890;2023-05-29T01:37:53;3.90;;;2.40;;
76826;SDS011;65788;52.284;20.890;2023-05-29T01:40:21;3.50;;;1.90;;
76826;SDS011;65788;52.284;20.890;2023-05-29T01:42:48;4.00;;;2.30;;
76826;SDS011;65788;52.284;20.890;2023-05-29T01:45:16;5.20;;;2.10;;
76826;SDS011;65788;52.284;20.890;2023-05-29T01:47:45;3.90;;;2.30;;
76826;SDS011;65788;52.284;20.890;2023-05-29T01:50:14;4.50;;;2.10;;
76826;SDS011;65788;52.284;20.890;2023-05-29T01:52:45;3.60;;;2.00;;
76826;SDS011;65788;52.284;20.890;2023-05-29T01:55:13;5.30;;;2.30;;
76826;SDS011;65788;52.284;20.890;2023-05-29T01:57:40;3.50;;;2.10;;
76826;SDS011;65788;52.284;20.890;2023-05-29T02:00:09;4.90;;;2.20;;
76826;SDS011;65788;52.284;20.890;2023-05-29T02:02:38;4.40;;;2.40;;
76826;SDS011;65788;52.284;20.890;2023-05-29T02:05:08;3.20;;;2.00;;
76826;SDS011;65788;52.284;20.890;2023-05-29T02:07:38;4.30;;;2.10;;
76826;SDS011;65788;52.284;20.890;2023-05-29T02:10:07;4.40;;;2.20;;
76826;SDS011;65788;52.284;20.890;2023-05-29T02:12:34;4.90;;;2.40;;
76826;SDS011;65788;52.284;20.890;2023-05-29T02:15:01;5.00;;;2.20;;
76826;SDS011;65788;52.284;20.890;2023-05-29T02:17:30;3.30;;;1.90;;
76826;SDS011;65788;52.284;20.890;2023-05-29T02:19:57;4.80;;;2.20;;
76826;SDS011;65788;52.284;20.890;2023-05-29T02:22:28;4.90;;;2.40;;
76826;SDS011;65788;52.284;20.890;2023-05-29T02:24:55;4.10;;;2.30;;
76826;SDS011;65788;52.284;20.890;2023-05-29T02:27:22;5.20;;;2.20;;
76826;SDS011;65788;52.284;20.890;2023-05-29T02:29:50;3.90;;;1.90;;
76826;SDS011;65788;52.284;20.890;2023-05-29T02:32:17;4.50;;;2.40;;
76826;SDS011;65788;52.284;20.890;2023-05-29T02:34:44;4.40;;;2.20;;
76826;SDS011;65788;52.284;20.890;2023-05-29T02:37:13;4.60;;;2.20;;
76826;SDS011;65788;52.284;20.890;2023-05-29T02:39:40;4.10;;;2.20;;
76826;SDS011;65788;52.284;20.890;2023-05-29T02:42:07;4.40;;;2.20;;
76826;SDS011;65788;52.284;20.890;2023-05-29T02:44:35;2.80;;;1.80;;
76826;SDS011;65788;52.284;20.890;2023-05-29T02:47:02;5.30;;;2.50;;
76826;SDS011;65788;52.284;20.890;2023-05-29T02:49:30;4.20;;;2.20;;
76826;SDS011;65788;52.284;20.890;2023-05-29T02:51:59;4.50;;;2.30;;
76826;SDS011;65788;52.284;20.890;2023-05-29T02:54:26;4.10;;;2.30;;
76826;SDS011;65788;52.284;20.890;2023-05-29T02:56:53;4.20;;;2.20;;
76826;SDS011;65788;52.284;20.890;2023-05-29T02:59:21;4.50;;;2.10;;
76826;SDS011;65788;52.284;20.890;2023-05-29T03:01:48;4.10;;;2.30;;
76826;SDS011;65788;52.284;20.890;2023-05-29T03:04:15;3.70;;;2.30;;
76826;SDS011;65788;52.284;20.890;2023-05-29T03:06:45;4.20;;;2.60;;
76826;SDS011;65788;52.284;20.890;2023-05-29T03:09:12;3.50;;;2.30;;
76826;SDS011;65788;52.284;20.890;2023-05-29T03:11:40;4.00;;;2.10;;
76826;SDS011;65788;52.284;20.890;2023-05-29T03:14:08;4.10;;;2.30;;
76826;SDS011;65788;52.284;20.890;2023-05-29T03:16:35;4.60;;;2.40;;
76826;SDS011;65788;52.284;20.890;2023-05-29T03:19:04;4.70;;;2.40;;
76826;SDS011;65788;52.284;20.890;2023-05-29T03:21:33;4.50;;;2.30;;
76826;SDS011;65788;52.284;20.890;2023-05-29T03:24:00;3.70;;;2.60;;
76826;SDS011;65788;52.284;20.890;2023-05-29T03:26:27;3.40;;;2.00;;
76826;SDS011;65788;52.284;20.890;2023-05-29T03:28:55;3.40;;;2.00;;
76826;SDS011;65788;52.284;20.890;2023-05-29T03:31:22;5.00;;;2.10;;
76826;SDS011;65788;52.284;20.890;2023-05-29T03:33:49;5.50;;;2.50;;
76826;SDS011;65788;52.284;20.890;2023-05-29T03:36:17;3.80;;;2.10;;
76826;SDS011;65788;52.284;20.890;2023-05-29T03:38:44;4.30;;;2.50;;
76826;SDS011;65788;52.284;20.890;2023-05-29T03:41:11;3.50;;;2.30;;
76826;SDS011;65788;52.284;20.890;2023-05-29T03:43:39;4.20;;;2.10;;
76826;SDS011;65788;52.284;20.890;2023-05-29T03:46:06;4.00;;;2.20;;
76826;SDS011;65788;52.284;20.890;2023-05-29T03:48:33;3.20;;;2.10;;
76826;SDS011;65788;52.284;20.890;2023-05-29T03:51:02;4.10;;;2.40;;
76826;SDS011;65788;52.284;20.890;2023-05-29T03:53:29;3.20;;;2.10;;
76826;SDS011;65788;52.284;20.890;2023-05-29T03:55:55;4.30;;;2.20;;
76826;SDS011;65788;52.284;20.890;2023-05-29T03:58:27;4.30;;;2.50;;
76826;SDS011;65788;52.284;20.890;2023-05-29T04:03:21;4.00;;;2.20;;
76826;SDS011;65788;52.284;20.890;2023-05-29T04:05:49;3.50;;;2.20;;
76826;SDS011;65788;52.284;20.890;2023-05-29T04:08:17;4.00;;;2.30;;
76826;SDS011;65788;52.284;20.890;2023-05-29T04:10:44;4.00;;;2.70;;
76826;SDS011;65788;52.284;20.890;2023-05-29T04:13:32;3.90;;;2.40;;
76826;SDS011;65788;52.284;20.890;2023-05-29T04:16:20;4.10;;;2.50;;
76826;SDS011;65788;52.284;20.890;2023-05-29T04:18:47;5.50;;;2.50;;
76826;SDS011;65788;52.284;20.890;2023-05-29T04:21:18;4.50;;;2.50;;
76826;SDS011;65788;52.284;20.890;2023-05-29T04:23:45;7.30;;;2.60;;
76826;SDS011;65788;52.284;20.890;2023-05-29T04:26:12;6.70;;;2.70;;
76826;SDS011;65788;52.284;20.890;2023-05-29T04:28:40;5.50;;;2.60;;
76826;SDS011;65788;52.284;20.890;2023-05-29T04:31:08;4.40;;;2.80;;
76826;SDS011;65788;52.284;20.890;2023-05-29T04:33:42;6.80;;;2.30;;
76826;SDS011;65788;52.284;20.890;2023-05-29T04:36:11;6.30;;;2.80;;
76826;SDS011;65788;52.284;20.890;2023-05-29T04:38:40;5.40;;;2.80;;
76826;SDS011;65788;52.284;20.890;2023-05-29T04:41:07;6.20;;;2.40;;
76826;SDS011;65788;52.284;20.890;2023-05-29T04:43:34;7.90;;;3.00;;
76826;SDS011;65788;52.284;20.890;2023-05-29T04:46:04;7.10;;;2.80;;
76826;SDS011;65788;52.284;20.890;2023-05-29T04:48:30;6.20;;;2.90;;
76826;SDS011;65788;52.284;20.890;2023-05-29T04:50:58;6.50;;;2.90;;
76826;SDS011;65788;52.284;20.890;2023-05-29T04:53:27;6.30;;;3.10;;
76826;SDS011;65788;52.284;20.890;2023-05-29T04:55:54;6.40;;;3.30;;
76826;SDS011;65788;52.284;20.890;2023-05-29T04:58:21;10.90;;;4.00;;
76826;SDS011;65788;52.284;20.890;2023-05-29T05:00:52;13.40;;;3.90;;
76826;SDS011;65788;52.284;20.890;2023-05-29T05:03:19;11.50;;;3.80;;
76826;SDS011;65788;52.284;20.890;2023-05-29T05:05:46;9.20;;;3.40;;
76826;SDS011;65788;52.284;20.890;2023-05-29T05:08:14;7.60;;;3.90;;
76826;SDS011;65788;52.284;20.890;2023-05-29T05:10:41;10.30;;;3.30;;
76826;SDS011;65788;52.284;20.890;2023-05-29T05:13:08;11.10;;;3.90;;
76826;SDS011;65788;52.284;20.890;2023-05-29T05:15:36;9.50;;;4.30;;
76826;SDS011;65788;52.284;20.890;2023-05-29T05:18:05;10.60;;;3.90;;
76826;SDS011;65788;52.284;20.890;2023-05-29T05:20:34;7.30;;;3.00;;
76826;SDS011;65788;52.284;20.890;2023-05-29T05:23:02;9.70;;;3.20;;
76826;SDS011;65788;52.284;20.890;2023-05-29T05:25:29;8.30;;;4.20;;
76826;SDS011;65788;52.284;20.890;2023-05-29T05:27:57;9.00;;;4.50;;
76826;SDS011;65788;52.284;20.890;2023-05-29T05:30:24;12.40;;;4.60;;
76826;SDS011;65788;52.284;20.890;2023-05-29T05:32:51;9.00;;;4.30;;
76826;SDS011;65788;52.284;20.890;2023-05-29T05:35:19;10.60;;;4.80;;
76826;SDS011;65788;52.284;20.890;2023-05-29T05:37:46;5.80;;;3.80;;
76826;SDS011;65788;52.284;20.890;2023-05-29T05:40:13;7.40;;;3.60;;
76826;SDS011;65788;52.284;20.890;2023-05-29T05:42:41;9.70;;;3.90;;
76826;SDS011;65788;52.284;20.890;2023-05-29T05:45:09;12.50;;;3.40;;
76826;SDS011;65788;52.284;20.890;2023-05-29T05:47:36;13.30;;;4.20;;
76826;SDS011;65788;52.284;20.890;2023-05-29T05:50:04;10.60;;;3.70;;
76826;SDS011;65788;52.284;20.890;2023-05-29T05:52:32;8.50;;;3.50;;
76826;SDS011;65788;52.284;20.890;2023-05-29T05:55:00;10.30;;;3.80;;
76826;SDS011;65788;52.284;20.890;2023-05-29T05:57:28;6.90;;;3.00;;
76826;SDS011;65788;52.284;20.890;2023-05-29T05:59:55;9.80;;;3.40;;
76826;SDS011;65788;52.284;20.890;2023-05-29T06:02:23;11.30;;;3.80;;
76826;SDS011;65788;52.284;20.890;2023-05-29T06:04:51;8.10;;;3.20;;
76826;SDS011;65788;52.284;20.890;2023-05-29T06:09:45;8.40;;;3.20;;
76826;SDS011;65788;52.284;20.890;2023-05-29T06:12:14;8.90;;;3.40;;
76826;SDS011;65788;52.284;20.890;2023-05-29T06:14:42;7.70;;;3.40;;
76826;SDS011;65788;52.284;20.890;2023-05-29T06:17:09;11.60;;;3.10;;
76826;SDS011;65788;52.284;20.890;2023-05-29T06:19:37;8.50;;;2.90;;
76826;SDS011;65788;52.284;20.890;2023-05-29T06:22:05;10.40;;;3.20;;
76826;SDS011;65788;52.284;20.890;2023-05-29T06:24:32;9.50;;;2.80;;
76826;SDS011;65788;52.284;20.890;2023-05-29T06:27:00;8.30;;;3.00;;
76826;SDS011;65788;52.284;20.890;2023-05-29T06:29:28;11.40;;;2.80;;
76826;SDS011;65788;52.284;20.890;2023-05-29T06:31:59;7.50;;;2.90;;
76826;SDS011;65788;52.284;20.890;2023-05-29T06:34:26;6.80;;;2.60;;
76826;SDS011;65788;52.284;20.890;2023-05-29T06:36:53;6.90;;;2.90;;
76826;SDS011;65788;52.284;20.890;2023-05-29T06:39:21;7.20;;;2.80;;
76826;SDS011;65788;52.284;20.890;2023-05-29T06:41:48;7.20;;;2.60;;
76826;SDS011;65788;52.284;20.890;2023-05-29T06:44:17;8.80;;;4.30;;
76826;SDS011;65788;52.284;20.890;2023-05-29T06:46:46;5.50;;;2.60;;
76826;SDS011;65788;52.284;20.890;2023-05-29T06:49:12;8.30;;;3.10;;
76826;SDS011;65788;52.284;20.890;2023-05-29T06:51:39;6.00;;;2.70;;
76826;SDS011;65788;52.284;20.890;2023-05-29T06:54:08;8.10;;;3.00;;
76826;SDS011;65788;52.284;20.890;2023-05-29T06:56:34;4.70;;;2.50;;
76826;SDS011;65788;52.284;20.890;2023-05-29T06:59:06;6.70;;;2.70;;
76826;SDS011;65788;52.284;20.890;2023-05-29T07:01:33;5.20;;;2.50;;
76826;SDS011;65788;52.284;20.890;2023-05-29T07:04:00;6.50;;;2.50;;
76826;SDS011;65788;52.284;20.890;2023-05-29T07:06:29;5.00;;;2.70;;
76826;SDS011;65788;52.284;20.890;2023-05-29T07:08:56;8.70;;;2.40;;
76826;SDS011;65788;52.284;20.890;2023-05-29T07:11:22;7.80;;;2.70;;
76826;SDS011;65788;52.284;20.890;2023-05-29T07:13:51;5.00;;;2.30;;
76826;SDS011;65788;52.284;20.890;2023-05-29T07:16:17;5.70;;;2.50;;
76826;SDS011;65788;52.284;20.890;2023-05-29T07:18:45;4.60;;;2.50;;
76826;SDS011;65788;52.284;20.890;2023-05-29T07:21:13;4.40;;;2.30;;
76826;SDS011;65788;52.284;20.890;2023-05-29T07:23:40;4.80;;;2.60;;
76826;SDS011;65788;52.284;20.890;2023-05-29T07:26:07;7.80;;;2.70;;
76826;SDS011;65788;52.284;20.890;2023-05-29T07:28:35;4.80;;;2.40;;
76826;SDS011;65788;52.284;20.890;2023-05-29T07:31:02;6.30;;;2.70;;
76826;SDS011;65788;52.284;20.890;2023-05-29T07:33:28;6.60;;;2.60;;
76826;SDS011;65788;52.284;20.890;2023-05-29T07:35:57;4.90;;;2.30;;
76826;SDS011;65788;52.284;20.890;2023-05-29T07:38:24;4.40;;;2.10;;
76826;SDS011;65788;52.284;20.890;2023-05-29T07:40:50;4.00;;;2.10;;
76826;SDS011;65788;52.284;20.890;2023-05-29T07:43:19;4.70;;;2.10;;
76826;SDS011;65788;52.284;20.890;2023-05-29T07:45:46;6.20;;;2.30;;
76826;SDS011;65788;52.284;20.890;2023-05-29T07:48:13;7.60;;;3.00;;
76826;SDS011;65788;52.284;20.890;2023-05-29T07:50:41;5.10;;;2.20;;
76826;SDS011;65788;52.284;20.890;2023-05-29T07:53:08;9.70;;;3.10;;
76826;SDS011;65788;52.284;20.890;2023-05-29T07:55:35;6.60;;;3.00;;
76826;SDS011;65788;52.284;20.890;2023-05-29T07:58:06;8.00;;;3.40;;
76826;SDS011;65788;52.284;20.890;2023-05-29T08:00:34;7.10;;;2.90;;
76826;SDS011;65788;52.284;20.890;2023-05-29T08:03:00;9.50;;;3.50;;
76826;SDS011;65788;52.284;20.890;2023-05-29T08:05:31;7.30;;;2.90;;
76826;SDS011;65788;52.284;20.890;2023-05-29T08:08:01;9.50;;;3.50;;
76826;SDS011;65788;52.284;20.890;2023-05-29T08:10:29;7.90;;;2.60;;
76826;SDS011;65788;52.284;20.890;2023-05-29T08:12:56;7.40;;;3.10;;
76826;SDS011;65788;52.284;20.890;2023-05-29T08:15:23;6.40;;;3.20;;
76826;SDS011;65788;52.284;20.890;2023-05-29T08:17:52;9.40;;;3.00;;
76826;SDS011;65788;52.284;20.890;2023-05-29T08:20:19;7.30;;;2.60;;
76826;SDS011;65788;52.284;20.890;2023-05-29T08:22:47;7.30;;;2.90;;
76826;SDS011;65788;52.284;20.890;2023-05-29T08:25:15;5.40;;;2.50;;
76826;SDS011;65788;52.284;20.890;2023-05-29T08:27:42;8.50;;;2.80;;
76826;SDS011;65788;52.284;20.890;2023-05-29T08:30:09;7.40;;;2.60;;
76826;SDS011;65788;52.284;20.890;2023-05-29T08:32:39;7.20;;;2.80;;
76826;SDS011;65788;52.284;20.890;2023-05-29T08:35:06;5.80;;;2.40;;
76826;SDS011;65788;52.284;20.890;2023-05-29T08:37:34;8.00;;;3.10;;
76826;SDS011;65788;52.284;20.890;2023-05-29T08:40:03;5.70;;;2.50;;
76826;SDS011;65788;52.284;20.890;2023-05-29T08:42:36;5.70;;;2.80;;
76826;SDS011;65788;52.284;20.890;2023-05-29T08:45:08;6.80;;;2.70;;
76826;SDS011;65788;52.284;20.890;2023-05-29T08:47:40;7.40;;;2.70;;
76826;SDS011;65788;52.284;20.890;2023-05-29T08:50:10;4.50;;;2.30;;
76826;SDS011;65788;52.284;20.890;2023-05-29T08:52:37;4.60;;;2.30;;
76826;SDS011;65788;52.284;20.890;2023-05-29T08:55:08;5.30;;;2.50;;
76826;SDS011;65788;52.284;20.890;2023-05-29T08:57:36;6.40;;;2.30;;
76826;SDS011;65788;52.284;20.890;2023-05-29T09:00:07;4.60;;;2.50;;
76826;SDS011;65788;52.284;20.890;2023-05-29T09:02:44;5.60;;;2.30;;
76826;SDS011;65788;52.284;20.890;2023-05-29T09:05:11;5.30;;;2.40;;
76826;SDS011;65788;52.284;20.890;2023-05-29T09:07:39;4.90;;;2.90;;
76826;SDS011;65788;52.284;20.890;2023-05-29T09:13:43;7.30;;;2.60;;
76826;SDS011;65788;52.284;20.890;2023-05-29T09:16:13;7.30;;;2.60;;
76826;SDS011;65788;52.284;20.890;2023-05-29T09:18:45;5.10;;;2.30;;
76826;SDS011;65788;52.284;20.890;2023-05-29T09:21:26;6.40;;;3.00;;
76826;SDS011;65788;52.284;20.890;2023-05-29T09:24:02;4.40;;;2.40;;
76826;SDS011;65788;52.284;20.890;2023-05-29T09:26:33;5.20;;;2.10;;
76826;SDS011;65788;52.284;20.890;2023-05-29T09:29:00;4.60;;;2.40;;
76826;SDS011;65788;52.284;20.890;2023-05-29T09:31:31;5.00;;;2.30;;
76826;SDS011;65788;52.284;20.890;2023-05-29T09:33:59;5.90;;;1.90;;
76826;SDS011;65788;52.284;20.890;2023-05-29T09:36:30;4.80;;;2.20;;
76826;SDS011;65788;52.284;20.890;2023-05-29T09:39:01;5.30;;;2.10;;
76826;SDS011;65788;52.284;20.890;2023-05-29T09:41:31;3.60;;;2.20;;
76826;SDS011;65788;52.284;20.890;2023-05-29T09:46:33;7.50;;;2.00;;
76826;SDS011;65788;52.284;20.890;2023-05-29T09:49:03;5.70;;;2.00;;
76826;SDS011;65788;52.284;20.890;2023-05-29T09:51:40;4.50;;;2.30;;
76826;SDS011;65788;52.284;20.890;2023-05-29T09:54:15;5.40;;;2.20;;
76826;SDS011;65788;52.284;20.890;2023-05-29T09:56:44;5.60;;;2.50;;
76826;SDS011;65788;52.284;20.890;2023-05-29T09:59:12;3.90;;;2.10;;
76826;SDS011;65788;52.284;20.890;2023-05-29T10:01:43;4.40;;;2.00;;
76826;SDS011;65788;52.284;20.890;2023-05-29T10:04:10;4.10;;;1.80;;
76826;SDS011;65788;52.284;20.890;2023-05-29T10:06:38;5.40;;;2.50;;
76826;SDS011;65788;52.284;20.890;2023-05-29T10:09:12;5.50;;;1.80;;
76826;SDS011;65788;52.284;20.890;2023-05-29T10:11:41;3.90;;;2.00;;
76826;SDS011;65788;52.284;20.890;2023-05-29T10:14:17;4.20;;;1.90;;
76826;SDS011;65788;52.284;20.890;2023-05-29T10:16:47;3.60;;;2.10;;
76826;SDS011;65788;52.284;20.890;2023-05-29T10:19:24;4.70;;;2.50;;
76826;SDS011;65788;52.284;20.890;2023-05-29T10:21:54;4.30;;;2.20;;
76826;SDS011;65788;52.284;20.890;2023-05-29T10:24:22;4.50;;;2.30;;
76826;SDS011;65788;52.284;20.890;2023-05-29T10:26:53;4.90;;;2.30;;
76826;SDS011;65788;52.284;20.890;2023-05-29T10:32:25;3.80;;;1.90;;
76826;SDS011;65788;52.284;20.890;2023-05-29T10:35:08;4.00;;;2.00;;
76826;SDS011;65788;52.284;20.890;2023-05-29T10:37:44;3.90;;;1.80;;
76826;SDS011;65788;52.284;20.890;2023-05-29T10:40:11;4.80;;;1.80;;
76826;SDS011;65788;52.284;20.890;2023-05-29T10:42:42;4.70;;;1.80;;
76826;SDS011;65788;52.284;20.890;2023-05-29T10:45:48;4.20;;;1.60;;
76826;SDS011;65788;52.284;20.890;2023-05-29T10:53:16;5.30;;;2.50;;
76826;SDS011;65788;52.284;20.890;2023-05-29T10:55:45;3.50;;;1.60;;
76826;SDS011;65788;52.284;20.890;2023-05-29T10:58:20;3.40;;;1.60;;
76826;SDS011;65788;52.284;20.890;2023-05-29T11:00:53;3.80;;;1.80;;
76826;SDS011;65788;52.284;20.890;2023-05-29T11:03:22;4.80;;;1.90;;
76826;SDS011;65788;52.284;20.890;2023-05-29T11:06:01;4.60;;;1.90;;
76826;SDS011;65788;52.284;20.890;2023-05-29T11:08:33;4.10;;;1.50;;
76826;SDS011;65788;52.284;20.890;2023-05-29T11:13:51;4.40;;;1.80;;
76826;SDS011;65788;52.284;20.890;2023-05-29T11:18:58;3.40;;;1.50;;
76826;SDS011;65788;52.284;20.890;2023-05-29T11:21:33;3.90;;;1.70;;
76826;SDS011;65788;52.284;20.890;2023-05-29T11:24:09;3.50;;;1.60;;
76826;SDS011;65788;52.284;20.890;2023-05-29T11:27:00;3.00;;;1.40;;
76826;SDS011;65788;52.284;20.890;2023-05-29T11:29:33;2.90;;;2.00;;
76826;SDS011;65788;52.284;20.890;2023-05-29T11:32:02;3.40;;;1.60;;
76826;SDS011;65788;52.284;20.890;2023-05-29T11:34:38;6.10;;;2.80;;
76826;SDS011;65788;52.284;20.890;2023-05-29T11:37:07;3.20;;;1.60;;
76826;SDS011;65788;52.284;20.890;2023-05-29T11:39:36;3.40;;;1.80;;
76826;SDS011;65788;52.284;20.890;2023-05-29T11:42:04;4.00;;;1.80;;
76826;SDS011;65788;52.284;20.890;2023-05-29T11:44:34;3.00;;;1.60;;
76826;SDS011;65788;52.284;20.890;2023-05-29T11:47:05;3.60;;;1.80;;
76826;SDS011;65788;52.284;20.890;2023-05-29T11:49:35;2.80;;;1.50;;
76826;SDS011;65788;52.284;20.890;2023-05-29T11:54:38;2.60;;;1.60;;
76826;SDS011;65788;52.284;20.890;2023-05-29T11:57:05;2.80;;;1.70;;
76826;SDS011;65788;52.284;20.890;2023-05-29T11:59:32;3.00;;;1.60;;
76826;SDS011;65788;52.284;20.890;2023-05-29T12:02:03;3.40;;;1.70;;
76826;SDS011;65788;52.284;20.890;2023-05-29T12:04:30;3.40;;;1.50;;
76826;SDS011;65788;52.284;20.890;2023-05-29T12:06:59;3.50;;;1.60;;
76826;SDS011;65788;52.284;20.890;2023-05-29T12:09:28;2.20;;;1.40;;
76826;SDS011;65788;52.284;20.890;2023-05-29T12:12:01;4.50;;;1.70;;
76826;SDS011;65788;52.284;20.890;2023-05-29T12:14:29;3.10;;;1.70;;
76826;SDS011;65788;52.284;20.890;2023-05-29T12:16:57;3.30;;;1.70;;
76826;SDS011;65788;52.284;20.890;2023-05-29T12:19:24;4.40;;;1.80;;
76826;SDS011;65788;52.284;20.890;2023-05-29T12:21:51;3.70;;;1.90;;
76826;SDS011;65788;52.284;20.890;2023-05-29T12:24:19;2.70;;;1.30;;
76826;SDS011;65788;52.284;20.890;2023-05-29T12:26:46;3.00;;;1.70;;
76826;SDS011;65788;52.284;20.890;2023-05-29T12:29:14;2.70;;;1.60;;
76826;SDS011;65788;52.284;20.890;2023-05-29T12:31:42;2.50;;;1.60;;
76826;SDS011;65788;52.284;20.890;2023-05-29T12:34:11;2.40;;;1.50;;
76826;SDS011;65788;52.284;20.890;2023-05-29T12:36:41;3.00;;;1.60;;
76826;SDS011;65788;52.284;20.890;2023-05-29T12:39:12;2.90;;;1.60;;
76826;SDS011;65788;52.284;20.890;2023-05-29T12:41:40;3.10;;;1.80;;
76826;SDS011;65788;52.284;20.890;2023-05-29T12:44:07;2.50;;;1.40;;
76826;SDS011;65788;52.284;20.890;2023-05-29T12:46:36;3.60;;;1.70;;
76826;SDS011;65788;52.284;20.890;2023-05-29T12:49:15;2.90;;;1.40;;
76826;SDS011;65788;52.284;20.890;2023-05-29T12:51:47;3.60;;;1.60;;
76826;SDS011;65788;52.284;20.890;2023-05-29T12:54:14;2.40;;;1.40;;
76826;SDS011;65788;52.284;20.890;2023-05-29T12:56:43;3.30;;;1.70;;
76826;SDS011;65788;52.284;20.890;2023-05-29T13:01:39;2.40;;;1.40;;
76826;SDS011;65788;52.284;20.890;2023-05-29T13:04:07;3.30;;;1.50;;
76826;SDS011;65788;52.284;20.890;2023-05-29T13:06:36;2.30;;;1.50;;
76826;SDS011;65788;52.284;20.890;2023-05-29T13:09:04;3.10;;;1.50;;
76826;SDS011;65788;52.284;20.890;2023-05-29T13:11:34;2.40;;;1.50;;
76826;SDS011;65788;52.284;20.890;2023-05-29T13:14:03;3.40;;;1.60;;
76826;SDS011;65788;52.284;20.890;2023-05-29T13:16:33;3.00;;;1.60;;
76826;SDS011;65788;52.284;20.890;2023-05-29T13:18:59;3.70;;;1.60;;
76826;SDS011;65788;52.284;20.890;2023-05-29T13:21:26;2.70;;;1.50;;
76826;SDS011;65788;52.284;20.890;2023-05-29T13:23:54;3.10;;;1.80;;
76826;SDS011;65788;52.284;20.890;2023-05-29T13:28:51;3.10;;;1.40;;
76826;SDS011;65788;52.284;20.890;2023-05-29T13:33:47;3.10;;;1.60;;
76826;SDS011;65788;52.284;20.890;2023-05-29T13:36:14;3.60;;;1.50;;
76826;SDS011;65788;52.284;20.890;2023-05-29T13:38:42;5.10;;;1.80;;
76826;SDS011;65788;52.284;20.890;2023-05-29T13:41:10;3.60;;;1.80;;
76826;SDS011;65788;52.284;20.890;2023-05-29T13:43:41;3.70;;;1.70;;
76826;SDS011;65788;52.284;20.890;2023-05-29T13:46:08;4.10;;;1.70;;
76826;SDS011;65788;52.284;20.890;2023-05-29T13:48:35;7.30;;;1.90;;
76826;SDS011;65788;52.284;20.890;2023-05-29T13:51:03;7.00;;;1.80;;
76826;SDS011;65788;52.284;20.890;2023-05-29T13:53:30;7.60;;;1.90;;
76826;SDS011;65788;52.284;20.890;2023-05-29T13:55:57;4.10;;;1.80;;
76826;SDS011;65788;52.284;20.890;2023-05-29T13:58:25;3.70;;;1.80;;
76826;SDS011;65788;52.284;20.890;2023-05-29T14:00:52;4.50;;;1.90;;
76826;SDS011;65788;52.284;20.890;2023-05-29T14:03:19;3.70;;;1.90;;
76826;SDS011;65788;52.284;20.890;2023-05-29T14:05:49;3.80;;;1.80;;
76826;SDS011;65788;52.284;20.890;2023-05-29T14:08:16;3.50;;;2.00;;
76826;SDS011;65788;52.284;20.890;2023-05-29T14:10:43;5.00;;;1.80;;
76826;SDS011;65788;52.284;20.890;2023-05-29T14:13:11;3.70;;;1.90;;
76826;SDS011;65788;52.284;20.890;2023-05-29T14:15:38;4.70;;;1.90;;
76826;SDS011;65788;52.284;20.890;2023-05-29T14:18:05;2.70;;;1.70;;
76826;SDS011;65788;52.284;20.890;2023-05-29T14:20:34;5.20;;;1.70;;
76826;SDS011;65788;52.284;20.890;2023-05-29T14:23:03;4.80;;;2.30;;
76826;SDS011;65788;52.284;20.890;2023-05-29T14:25:32;3.70;;;1.80;;
76826;SDS011;65788;52.284;20.890;2023-05-29T14:27:59;3.70;;;1.80;;
76826;SDS011;65788;52.284;20.890;2023-05-29T14:30:26;3.80;;;2.10;;
76826;SDS011;65788;52.284;20.890;2023-05-29T14:32:54;3.80;;;1.60;;
76826;SDS011;65788;52.284;20.890;2023-05-29T14:35:22;3.50;;;1.70;;
76826;SDS011;65788;52.284;20.890;2023-05-29T14:37:49;3.60;;;1.70;;
76826;SDS011;65788;52.284;20.890;2023-05-29T14:40:18;3.50;;;1.80;;
76826;SDS011;65788;52.284;20.890;2023-05-29T14:42:45;4.30;;;1.90;;
76826;SDS011;65788;52.284;20.890;2023-05-29T14:45:11;4.30;;;1.90;;
76826;SDS011;65788;52.284;20.890;2023-05-29T14:47:40;4.20;;;1.90;;
76826;SDS011;65788;52.284;20.890;2023-05-29T14:50:10;3.90;;;2.30;;
76826;SDS011;65788;52.284;20.890;2023-05-29T14:52:39;4.40;;;1.90;;
76826;SDS011;65788;52.284;20.890;2023-05-29T14:55:07;3.70;;;1.80;;
76826;SDS011;65788;52.284;20.890;2023-05-29T14:57:34;3.50;;;2.20;;
76826;SDS011;65788;52.284;20.890;2023-05-29T15:00:03;6.40;;;1.90;;
76826;SDS011;65788;52.284;20.890;2023-05-29T15:02:34;4.20;;;1.90;;
76826;SDS011;65788;52.284;20.890;2023-05-29T15:05:03;4.10;;;2.30;;
76826;SDS011;65788;52.284;20.890;2023-05-29T15:07:31;3.80;;;1.80;;
76826;SDS011;65788;52.284;20.890;2023-05-29T15:10:02;3.40;;;2.00;;
76826;SDS011;65788;52.284;20.890;2023-05-29T15:12:29;3.80;;;1.90;;
76826;SDS011;65788;52.284;20.890;2023-05-29T15:14:57;6.00;;;2.30;;
76826;SDS011;65788;52.284;20.890;2023-05-29T15:17:25;4.10;;;2.10;;
76826;SDS011;65788;52.284;20.890;2023-05-29T15:19:51;5.00;;;1.90;;
76826;SDS011;65788;52.284;20.890;2023-05-29T15:22:18;5.10;;;2.20;;
76826;SDS011;65788;52.284;20.890;2023-05-29T15:24:46;2.80;;;1.70;;
76826;SDS011;65788;52.284;20.890;2023-05-29T15:27:13;5.00;;;1.70;;
76826;SDS011;65788;52.284;20.890;2023-05-29T15:29:41;4.00;;;1.90;;